Time;durP1;ratioP1;P1;durP2;ratioP2;P2;SDS_P1;SDS_P2;PMS_P1;PMS_P2;Temp;Humidity;BMP_temperature;BMP_pressure;BME280_temperature;BME280_humidity;BME280_pressure;Samples;Min_cycle;Max_cycle;Signal;HPM_P1;HPM_P2
2021/01/09 00:00:35;;;;;;;7.80;4.50;;;0.90;97.80;;;;;;5118969;27;20047;-71
2021/01/09 00:03:00;;;;;;;7.57;4.60;;;0.90;97.90;;;;;;5121753;27;20051;-71
2021/01/09 00:05:26;;;;;;;6.70;4.35;;;0.90;98.10;;;;;;5120997;28;20483;-71
2021/01/09 00:07:52;;;;;;;5.78;4.45;;;1.00;97.80;;;;;;5112367;28;20041;-70
2021/01/09 00:10:38;;;;;;;7.38;4.50;;;1.00;97.60;;;;;;5119051;28;20043;-71
2021/01/09 00:13:04;;;;;;;6.15;4.13;;;1.00;97.80;;;;;;5109159;28;20161;-71
2021/01/09 00:15:30;;;;;;;8.15;4.60;;;1.00;97.80;;;;;;5099721;28;20062;-71
2021/01/09 00:17:55;;;;;;;7.75;4.45;;;1.10;97.90;;;;;;5109001;28;20111;-71
2021/01/09 00:20:22;;;;;;;5.63;4.13;;;1.10;97.90;;;;;;5112715;28;20055;-71
2021/01/09 00:22:48;;;;;;;6.35;4.28;;;1.10;97.90;;;;;;5115946;28;20043;-71
2021/01/09 00:25:16;;;;;;;8.43;4.90;;;1.30;97.60;;;;;;5115088;28;20068;-71
2021/01/09 00:27:42;;;;;;;6.65;4.55;;;1.30;97.50;;;;;;5105697;28;20042;-71
2021/01/09 00:30:09;;;;;;;8.02;4.63;;;1.30;97.50;;;;;;5105829;28;20051;-71
2021/01/09 00:32:35;;;;;;;7.32;4.80;;;1.30;97.50;;;;;;5105150;28;20059;-71
2021/01/09 00:35:01;;;;;;;6.95;4.70;;;1.30;97.50;;;;;;5109667;28;20040;-71
2021/01/09 00:37:28;;;;;;;6.60;4.53;;;1.30;97.50;;;;;;5115184;28;20063;-71
2021/01/09 00:39:54;;;;;;;6.63;4.65;;;1.30;97.60;;;;;;5105330;28;20056;-71
2021/01/09 00:42:20;;;;;;;6.07;4.40;;;1.20;97.50;;;;;;5105688;28;20200;-71
2021/01/09 00:44:46;;;;;;;5.85;4.60;;;1.20;97.50;;;;;;5107475;28;20036;-71
2021/01/09 00:47:11;;;;;;;7.50;4.10;;;1.20;97.50;;;;;;5104851;28;20127;-71
2021/01/09 00:49:37;;;;;;;6.72;4.55;;;1.10;97.40;;;;;;5124076;28;20040;-71
2021/01/09 00:52:03;;;;;;;4.97;3.65;;;1.20;97.60;;;;;;5114937;28;20047;-71
2021/01/09 00:54:29;;;;;;;8.40;4.00;;;1.10;97.30;;;;;;5105028;28;20484;-71
2021/01/09 00:56:55;;;;;;;5.50;3.65;;;1.20;97.50;;;;;;5112007;28;20122;-71
2021/01/09 00:59:23;;;;;;;4.88;3.72;;;1.10;97.50;;;;;;5115236;28;20064;-71
2021/01/09 01:01:50;;;;;;;5.53;3.63;;;1.10;97.50;;;;;;5111058;28;20040;-71
2021/01/09 01:04:16;;;;;;;5.25;3.75;;;1.00;97.60;;;;;;5106888;28;20048;-71
2021/01/09 01:06:42;;;;;;;5.50;3.47;;;1.10;97.80;;;;;;5105556;28;20073;-71
2021/01/09 01:09:10;;;;;;;5.93;3.33;;;1.10;97.80;;;;;;5104633;28;20036;-71
2021/01/09 01:11:36;;;;;;;6.15;3.60;;;1.10;97.80;;;;;;5118244;28;20093;-71
2021/01/09 01:14:03;;;;;;;5.28;3.58;;;1.20;98.10;;;;;;5116438;28;20051;-70
2021/01/09 01:16:29;;;;;;;5.18;3.83;;;1.30;98.30;;;;;;5104538;28;20044;-71
2021/01/09 01:18:56;;;;;;;5.28;3.60;;;1.30;98.20;;;;;;5104706;28;20157;-71
2021/01/09 01:21:22;;;;;;;5.53;3.58;;;1.30;98.10;;;;;;5104586;28;20107;-71
2021/01/09 01:23:48;;;;;;;5.57;3.22;;;1.40;98.10;;;;;;5104730;28;20048;-71
2021/01/09 01:26:14;;;;;;;6.00;3.42;;;1.40;98.00;;;;;;5104304;28;20089;-71
2021/01/09 01:28:41;;;;;;;9.25;3.92;;;1.50;97.80;;;;;;5104445;28;20070;-71
2021/01/09 01:31:10;;;;;;;4.18;3.30;;;1.50;97.70;;;;;;5104346;28;20040;-71
2021/01/09 01:33:38;;;;;;;5.07;3.53;;;1.50;97.70;;;;;;5104491;28;20048;-71
2021/01/09 01:36:05;;;;;;;6.05;3.22;;;1.50;97.70;;;;;;5104422;28;20115;-71
2021/01/09 01:38:32;;;;;;;5.82;3.72;;;1.60;97.60;;;;;;5105067;28;20048;-71
2021/01/09 01:41:05;;;;;;;5.80;3.40;;;1.50;97.50;;;;;;5105181;28;20633;-71
2021/01/09 01:43:31;;;;;;;6.57;3.45;;;1.60;97.60;;;;;;5109228;28;20059;-71
2021/01/09 01:45:59;;;;;;;4.45;3.65;;;1.60;97.50;;;;;;5108234;28;20040;-71
2021/01/09 01:48:25;;;;;;;6.00;3.80;;;1.50;97.60;;;;;;5108398;28;20044;-71
2021/01/09 01:50:51;;;;;;;6.00;3.67;;;1.50;97.50;;;;;;5108704;28;20043;-70
2021/01/09 01:53:17;;;;;;;6.18;3.65;;;1.50;97.40;;;;;;5108483;28;20134;-70
2021/01/09 01:55:44;;;;;;;4.43;3.67;;;1.40;97.20;;;;;;5108002;28;20044;-71
2021/01/09 01:58:10;;;;;;;5.75;3.90;;;1.30;97.10;;;;;;5108775;28;20043;-71
2021/01/09 02:00:36;;;;;;;4.85;4.18;;;1.20;97.10;;;;;;5108225;28;20093;-71
2021/01/09 02:03:03;;;;;;;7.07;4.20;;;1.10;97.20;;;;;;5111889;28;20055;-71
2021/01/09 02:05:36;;;;;;;7.05;4.30;;;1.00;97.50;;;;;;5107937;28;20044;-71
2021/01/09 02:08:06;;;;;;;6.43;4.88;;;1.00;97.40;;;;;;5108037;28;20567;-71
2021/01/09 02:10:32;;;;;;;5.00;3.75;;;0.90;97.40;;;;;;5107756;28;20043;-71
2021/01/09 02:13:07;;;;;;;6.57;4.95;;;0.90;97.50;;;;;;5107691;28;20177;-71
2021/01/09 02:15:34;;;;;;;6.38;4.60;;;0.80;97.60;;;;;;5107834;28;20087;-71
2021/01/09 02:18:01;;;;;;;6.45;4.97;;;0.80;97.70;;;;;;5107947;28;20048;-71
2021/01/09 02:20:28;;;;;;;7.15;4.97;;;0.70;97.90;;;;;;5107461;28;20051;-70
2021/01/09 02:22:55;;;;;;;7.75;5.32;;;0.70;98.10;;;;;;5107660;28;20079;-70
2021/01/09 02:25:21;;;;;;;8.73;4.63;;;0.70;98.20;;;;;;5107420;28;20105;-70
2021/01/09 02:27:47;;;;;;;7.05;5.38;;;0.70;98.40;;;;;;5107812;28;20051;-70
2021/01/09 02:30:21;;;;;;;6.55;4.93;;;0.70;98.30;;;;;;5107311;28;20072;-71
2021/01/09 02:32:50;;;;;;;5.35;4.78;;;0.70;98.30;;;;;;5107789;28;20044;-70
2021/01/09 02:35:20;;;;;;;7.97;4.90;;;0.60;97.90;;;;;;5107045;28;20070;-71
2021/01/09 02:37:46;;;;;;;8.80;5.75;;;0.60;98.00;;;;;;5107328;28;20048;-71
2021/01/09 02:40:22;;;;;;;6.85;5.50;;;0.50;97.90;;;;;;5107194;28;20067;-70
2021/01/09 02:42:48;;;;;;;7.22;5.10;;;0.50;98.00;;;;;;5107526;28;20051;-71
2021/01/09 02:45:14;;;;;;;7.30;5.40;;;0.40;98.10;;;;;;5107233;28;20047;-70
2021/01/09 02:47:40;;;;;;;7.05;5.18;;;0.40;98.40;;;;;;5107333;28;20070;-71
2021/01/09 02:50:10;;;;;;;7.25;5.43;;;0.30;98.30;;;;;;5107197;28;20048;-71
2021/01/09 02:52:37;;;;;;;7.35;5.13;;;0.30;98.30;;;;;;5106027;28;20107;-71
2021/01/09 02:55:04;;;;;;;9.38;5.50;;;0.30;98.40;;;;;;5107917;28;20044;-71
2021/01/09 02:57:30;;;;;;;7.68;5.18;;;0.30;98.60;;;;;;5107032;28;20032;-70
2021/01/09 02:59:56;;;;;;;7.15;5.40;;;0.30;98.80;;;;;;5106415;28;20407;-70
2021/01/09 03:02:22;;;;;;;6.53;5.10;;;0.30;99.00;;;;;;5106755;28;20059;-70
2021/01/09 03:04:47;;;;;;;6.20;5.03;;;0.20;98.70;;;;;;5107201;28;20075;-70
2021/01/09 03:07:13;;;;;;;8.15;6.13;;;0.20;98.90;;;;;;5088392;28;20529;-70
2021/01/09 03:09:39;;;;;;;8.60;5.40;;;0.30;99.00;;;;;;5106553;28;20048;-70
2021/01/09 03:12:07;;;;;;;6.53;5.03;;;0.20;98.90;;;;;;5106820;28;20048;-70
2021/01/09 03:14:33;;;;;;;8.20;5.53;;;0.30;99.00;;;;;;5106873;28;20044;-71
2021/01/09 03:16:59;;;;;;;6.20;4.88;;;0.30;99.10;;;;;;5106733;28;20080;-70
2021/01/09 03:19:24;;;;;;;7.68;4.97;;;0.30;99.00;;;;;;5106063;28;20088;-70
2021/01/09 03:21:50;;;;;;;7.28;5.40;;;0.30;99.00;;;;;;5107066;28;20043;-70
2021/01/09 03:24:16;;;;;;;5.95;4.85;;;0.20;98.90;;;;;;5106688;28;20070;-70
2021/01/09 03:26:42;;;;;;;5.63;4.55;;;0.30;99.00;;;;;;5106172;28;20048;-70
2021/01/09 03:29:08;;;;;;;6.40;4.85;;;0.30;98.80;;;;;;5106611;28;20557;-70
2021/01/09 03:31:34;;;;;;;5.88;4.65;;;0.20;98.70;;;;;;5105960;28;20055;-70
2021/01/09 03:34:00;;;;;;;7.32;5.00;;;0.30;99.00;;;;;;5107145;28;20123;-70
2021/01/09 03:36:26;;;;;;;7.70;5.10;;;0.30;99.00;;;;;;5106339;28;20048;-70
2021/01/09 03:38:52;;;;;;;8.13;5.57;;;0.40;99.20;;;;;;5106091;28;20136;-70
2021/01/09 03:41:18;;;;;;;9.98;5.75;;;0.40;99.20;;;;;;5107215;28;20048;-70
2021/01/09 03:43:44;;;;;;;8.95;5.55;;;0.50;99.10;;;;;;5106933;28;20606;-71
2021/01/09 03:46:10;;;;;;;6.90;4.78;;;0.50;99.20;;;;;;5106012;28;20054;-70
2021/01/09 03:48:35;;;;;;;7.43;5.43;;;0.50;99.10;;;;;;5106656;28;20114;-70
2021/01/09 03:51:01;;;;;;;9.32;5.18;;;0.50;99.00;;;;;;5105827;28;20051;-70
2021/01/09 03:53:27;;;;;;;8.60;5.40;;;0.50;99.20;;;;;;5105777;28;20040;-70
2021/01/09 03:55:53;;;;;;;9.20;5.82;;;0.50;99.30;;;;;;5105839;28;20484;-70
2021/01/09 03:58:18;;;;;;;8.27;5.70;;;0.60;99.30;;;;;;5105592;28;20100;-71
2021/01/09 04:00:44;;;;;;;7.38;4.97;;;0.60;99.20;;;;;;5105353;28;20484;-70
2021/01/09 04:03:10;;;;;;;9.25;5.90;;;0.60;99.20;;;;;;5105331;28;20100;-70
2021/01/09 04:05:36;;;;;;;8.90;5.13;;;0.60;99.20;;;;;;5105488;28;20067;-70
2021/01/09 04:08:02;;;;;;;9.10;5.65;;;0.60;99.20;;;;;;5106447;28;20052;-70
2021/01/09 04:10:28;;;;;;;7.57;5.68;;;0.70;99.20;;;;;;5105577;28;20059;-70
2021/01/09 04:12:53;;;;;;;9.77;5.72;;;0.70;99.00;;;;;;5105406;28;20056;-70
2021/01/09 04:15:19;;;;;;;8.80;6.00;;;0.60;98.80;;;;;;5105676;28;20066;-70
2021/01/09 04:17:45;;;;;;;6.90;5.85;;;0.60;98.90;;;;;;5105530;28;20080;-70
2021/01/09 04:20:11;;;;;;;10.38;6.10;;;0.50;98.90;;;;;;5105251;28;20538;-70
2021/01/09 04:22:37;;;;;;;9.50;5.88;;;0.60;99.20;;;;;;5105320;28;20105;-70
2021/01/09 04:25:03;;;;;;;10.90;6.70;;;0.60;99.20;;;;;;5105438;28;20040;-70
2021/01/09 04:27:29;;;;;;;9.20;6.47;;;0.60;99.30;;;;;;5105334;28;20044;-70
2021/01/09 04:29:55;;;;;;;10.73;6.22;;;0.60;99.10;;;;;;5105954;28;20051;-70
2021/01/09 04:32:20;;;;;;;11.15;7.15;;;0.60;99.20;;;;;;5105193;28;20052;-70
2021/01/09 04:34:47;;;;;;;11.30;6.70;;;0.60;99.30;;;;;;5105343;28;20036;-70
2021/01/09 04:37:14;;;;;;;10.88;7.05;;;0.60;99.20;;;;;;5105301;28;20050;-70
2021/01/09 04:39:40;;;;;;;10.95;7.20;;;0.60;99.10;;;;;;5105129;28;20055;-70
2021/01/09 04:42:06;;;;;;;11.68;7.03;;;0.60;99.20;;;;;;5105198;28;20047;-70
2021/01/09 04:44:32;;;;;;;9.73;7.40;;;0.60;99.20;;;;;;5104890;28;20048;-70
2021/01/09 04:47:01;;;;;;;11.70;7.80;;;0.60;99.20;;;;;;5105559;28;20515;-70
2021/01/09 04:49:28;;;;;;;12.43;8.35;;;0.60;99.40;;;;;;5105509;28;20069;-70
2021/01/09 04:51:55;;;;;;;12.90;7.15;;;0.60;99.30;;;;;;5104649;28;20127;-70
2021/01/09 04:54:23;;;;;;;11.07;8.50;;;0.60;99.40;;;;;;5104877;28;20055;-70
2021/01/09 04:56:50;;;;;;;12.13;7.78;;;0.60;99.40;;;;;;5104803;28;20036;-70
2021/01/09 04:59:18;;;;;;;12.13;8.57;;;0.60;99.80;;;;;;5104423;28;20044;-70
2021/01/09 05:01:46;;;;;;;13.23;9.23;;;0.70;99.60;;;;;;5107614;28;20494;-70
2021/01/09 05:04:13;;;;;;;14.82;10.00;;;0.70;99.50;;;;;;5107758;28;20054;-70
2021/01/09 05:06:40;;;;;;;13.65;9.35;;;0.70;99.50;;;;;;5104902;28;20089;-70
2021/01/09 05:09:07;;;;;;;16.08;8.90;;;0.70;99.50;;;;;;5104601;28;20040;-70
2021/01/09 05:11:37;;;;;;;13.93;9.45;;;0.70;99.30;;;;;;5104635;28;20036;-70
2021/01/09 05:14:04;;;;;;;14.27;9.43;;;0.70;99.40;;;;;;5104624;28;20106;-70
2021/01/09 05:16:31;;;;;;;13.05;8.70;;;0.70;99.40;;;;;;5089944;28;20055;-70
2021/01/09 05:18:57;;;;;;;13.85;9.50;;;0.70;99.40;;;;;;5111333;28;20044;-70
2021/01/09 05:21:24;;;;;;;13.80;9.05;;;0.70;99.40;;;;;;5111428;28;20605;-70
2021/01/09 05:24:05;;;;;;;12.55;9.38;;;0.70;99.40;;;;;;5112187;28;20130;-70
2021/01/09 05:26:32;;;;;;;12.15;9.57;;;0.70;99.40;;;;;;5098722;28;20561;-70
2021/01/09 05:29:00;;;;;;;11.75;8.68;;;0.60;99.40;;;;;;5111118;28;20101;-70
2021/01/09 05:31:27;;;;;;;13.45;9.15;;;0.70;99.50;;;;;;5111022;28;20561;-70
2021/01/09 05:33:54;;;;;;;13.20;8.77;;;0.60;99.30;;;;;;5112104;28;20131;-70
2021/01/09 05:36:21;;;;;;;13.52;8.80;;;0.60;99.40;;;;;;5111173;28;20048;-70
2021/01/09 05:38:49;;;;;;;13.05;8.60;;;0.60;99.30;;;;;;5111412;28;20051;-70
2021/01/09 05:41:21;;;;;;;12.02;8.38;;;0.60;99.40;;;;;;5111072;28;20093;-70
2021/01/09 05:44:08;;;;;;;11.60;8.25;;;0.60;99.30;;;;;;5111366;28;20065;-70
2021/01/09 05:46:40;;;;;;;9.88;8.88;;;0.70;99.40;;;;;;5110967;28;20048;-70
2021/01/09 05:49:08;;;;;;;11.93;7.90;;;0.60;99.40;;;;;;5111250;28;20070;-70
2021/01/09 05:51:35;;;;;;;10.35;7.57;;;0.60;99.40;;;;;;5110767;28;20159;-70
2021/01/09 05:54:01;;;;;;;13.50;8.38;;;0.60;99.30;;;;;;5110924;28;20142;-70
2021/01/09 05:56:27;;;;;;;13.60;8.65;;;0.60;99.40;;;;;;5110799;28;20044;-70
2021/01/09 05:58:55;;;;;;;13.70;8.13;;;0.60;99.50;;;;;;5110717;28;20097;-70
2021/01/09 06:01:29;;;;;;;12.75;8.10;;;0.60;99.50;;;;;;5110956;28;20046;-70
2021/01/09 06:04:12;;;;;;;10.85;7.70;;;0.60;99.50;;;;;;5110535;28;20047;-70
2021/01/09 06:06:42;;;;;;;13.68;8.27;;;0.60;99.50;;;;;;5110589;28;20044;-70
2021/01/09 06:09:10;;;;;;;10.85;8.02;;;0.60;99.70;;;;;;5111030;28;20051;-70
2021/01/09 06:11:42;;;;;;;12.70;7.43;;;0.60;99.70;;;;;;5110601;28;20044;-70
2021/01/09 06:14:11;;;;;;;11.55;7.65;;;0.60;99.60;;;;;;5111041;28;20044;-70
2021/01/09 06:16:40;;;;;;;11.48;7.72;;;0.60;99.50;;;;;;5111467;28;20048;-70
2021/01/09 06:19:07;;;;;;;9.40;7.35;;;0.60;99.50;;;;;;5112195;28;20044;-70
2021/01/09 06:21:34;;;;;;;10.55;7.78;;;0.60;99.50;;;;;;5110662;28;20067;-70
2021/01/09 06:24:04;;;;;;;10.23;7.47;;;0.60;99.40;;;;;;5110925;28;20044;-70
2021/01/09 06:26:30;;;;;;;10.68;7.40;;;0.60;99.30;;;;;;5110807;28;20062;-70
2021/01/09 06:29:03;;;;;;;8.80;7.10;;;0.60;99.30;;;;;;5106157;28;20181;-70
2021/01/09 06:31:29;;;;;;;11.55;6.75;;;0.60;99.20;;;;;;5107568;28;20039;-70
2021/01/09 06:34:01;;;;;;;10.10;7.05;;;0.60;99.20;;;;;;5107997;28;20052;-70
2021/01/09 06:36:27;;;;;;;8.52;6.85;;;0.60;99.20;;;;;;5107088;28;20074;-70
2021/01/09 06:38:56;;;;;;;12.45;7.38;;;0.50;99.30;;;;;;5107445;28;20058;-70
2021/01/09 06:41:24;;;;;;;10.15;7.43;;;0.50;99.40;;;;;;5107325;28;20044;-70
2021/01/09 06:43:53;;;;;;;10.82;7.50;;;0.60;99.50;;;;;;5106946;28;20085;-70
2021/01/09 06:46:33;;;;;;;10.18;6.95;;;0.60;99.50;;;;;;5107326;28;20085;-70
2021/01/09 06:48:59;;;;;;;;;;;0.60;99.60;;;;;;5107549;28;20044;-70
2021/01/09 06:51:37;;;;;;;13.80;6.75;;;0.70;99.70;;;;;;5107400;28;19927;-70
2021/01/09 06:54:37;;;;;;;8.88;6.63;;;0.70;99.60;;;;;;5106999;28;20052;-70
2021/01/09 06:57:03;;;;;;;;;;;0.70;99.50;;;;;;5093489;28;20054;-70
2021/01/09 06:59:36;;;;;;;11.60;6.68;;;0.70;99.40;;;;;;5107035;28;19939;-70
2021/01/09 07:02:27;;;;;;;9.07;6.75;;;0.70;99.40;;;;;;5111305;28;20047;-70
2021/01/09 07:04:57;;;;;;;10.15;6.88;;;0.70;99.60;;;;;;5107680;28;20569;-70
2021/01/09 07:07:43;;;;;;;9.07;6.03;;;0.90;99.60;;;;;;5108439;28;20044;-70
2021/01/09 07:10:18;;;;;;;9.02;6.55;;;0.80;99.50;;;;;;5099007;28;20130;-70
2021/01/09 07:12:55;;;;;;;11.52;5.97;;;0.80;99.50;;;;;;5106705;28;20075;-70
2021/01/09 07:15:22;;;;;;;12.57;5.90;;;0.80;99.50;;;;;;5107147;28;20044;-70
2021/01/09 07:17:57;;;;;;;8.68;5.43;;;0.80;99.20;;;;;;5106850;28;20048;-70
2021/01/09 07:20:27;;;;;;;10.50;5.57;;;0.70;99.20;;;;;;5108038;28;20062;-70
2021/01/09 07:22:59;;;;;;;10.05;5.45;;;0.60;99.10;;;;;;5106157;28;20044;-70
2021/01/09 07:25:31;;;;;;;10.40;4.88;;;0.50;99.20;;;;;;5106796;28;20052;-70
2021/01/09 07:27:59;;;;;;;8.80;5.38;;;0.50;99.20;;;;;;5106403;27;20044;-70
2021/01/09 07:30:26;;;;;;;9.57;5.53;;;0.40;99.30;;;;;;5106408;28;20051;-70
2021/01/09 07:32:54;;;;;;;10.52;4.82;;;0.40;99.20;;;;;;5106250;28;20043;-70
2021/01/09 07:35:28;;;;;;;8.63;4.93;;;0.30;99.50;;;;;;5105875;28;20067;-70
2021/01/09 07:38:05;;;;;;;7.55;3.60;;;0.30;99.80;;;;;;5106541;28;20069;-70
2021/01/09 07:40:33;;;;;;;14.40;4.75;;;0.30;99.80;;;;;;5106187;28;20070;-70
2021/01/09 07:43:00;;;;;;;8.15;4.47;;;0.20;99.40;;;;;;5105938;28;20127;-70
2021/01/09 07:45:33;;;;;;;10.20;5.25;;;0.20;99.60;;;;;;5117591;28;20111;-70
2021/01/09 07:47:59;;;;;;;8.80;5.05;;;0.10;99.90;;;;;;5107773;28;20135;-70
2021/01/09 07:50:25;;;;;;;10.15;4.97;;;0.20;99.90;;;;;;5106138;28;20047;-70
2021/01/09 07:53:05;;;;;;;12.43;5.43;;;0.20;99.90;;;;;;5111958;27;20039;-70
2021/01/09 07:55:46;;;;;;;12.18;5.18;;;0.20;99.70;;;;;;5126134;28;20042;-68
2021/01/09 07:58:13;;;;;;;12.27;5.85;;;0.20;99.70;;;;;;5125627;28;20065;-65
2021/01/09 08:00:42;;;;;;;10.05;5.85;;;0.10;99.90;;;;;;5115396;28;20048;-69
2021/01/09 08:03:09;;;;;;;12.30;6.28;;;0.10;99.90;;;;;;5125867;28;20040;-67
2021/01/09 08:05:36;;;;;;;12.13;6.10;;;0.20;99.90;;;;;;5126317;28;20047;-67
2021/01/09 08:08:03;;;;;;;13.02;6.65;;;0.20;99.90;;;;;;5126359;28;20056;-67
2021/01/09 08:10:34;;;;;;;13.38;6.15;;;0.20;99.90;;;;;;5125609;28;20048;-67
2021/01/09 08:13:04;;;;;;;;;;;0.30;99.90;;;;;;5110287;28;20036;-67
2021/01/09 08:15:32;;;;;;;7.57;4.78;;;0.20;99.90;;;;;;5114578;28;19955;-68
2021/01/09 08:18:03;;;;;;;8.85;5.28;;;0.20;99.90;;;;;;5105178;28;20040;-69
2021/01/09 08:20:29;;;;;;;7.70;4.88;;;0.10;99.90;;;;;;5120801;28;20096;-72
2021/01/09 08:23:03;;;;;;;11.35;5.70;;;0.10;99.90;;;;;;5125329;28;20123;-70
2021/01/09 08:25:34;;;;;;;8.95;5.32;;;0.10;99.90;;;;;;5126278;28;20044;-71
2021/01/09 08:28:04;;;;;;;8.52;5.05;;;0.20;99.90;;;;;;5122442;28;20043;-71
2021/01/09 08:30:35;;;;;;;10.45;5.40;;;0.10;99.90;;;;;;5124810;28;20483;-71
2021/01/09 08:33:08;;;;;;;10.70;5.35;;;0.20;99.90;;;;;;5125576;28;20032;-71
2021/01/09 08:35:36;;;;;;;9.27;4.18;;;0.20;99.90;;;;;;5125171;28;20059;-69
2021/01/09 08:38:03;;;;;;;10.20;4.00;;;0.20;99.90;;;;;;5125617;28;20046;-71
2021/01/09 08:40:31;;;;;;;8.15;4.05;;;0.10;99.90;;;;;;5125713;28;20052;-71
2021/01/09 08:43:05;;;;;;;5.20;3.58;;;0.10;99.40;;;;;;5125260;28;20047;-72
2021/01/09 08:45:51;;;;;;;9.93;6.15;;;0.00;99.40;;;;;;5125096;28;20048;-71
2021/01/09 08:48:23;;;;;;;10.07;7.03;;;0.10;99.60;;;;;;5125218;28;20051;-75
2021/01/09 08:51:18;;;;;;;13.45;6.93;;;0.30;99.90;;;;;;5124424;28;20039;-71
2021/01/09 08:53:52;;;;;;;11.23;4.93;;;0.40;99.90;;;;;;5124545;28;20587;-71
2021/01/09 08:56:19;;;;;;;4.93;3.40;;;0.40;99.90;;;;;;5124964;28;20043;-71
2021/01/09 08:58:46;;;;;;;8.95;5.43;;;0.40;99.90;;;;;;5125061;28;20036;-70
2021/01/09 09:01:14;;;;;;;11.32;6.85;;;0.50;99.90;;;;;;5118381;28;20044;-69
2021/01/09 09:03:44;;;;;;;11.63;6.97;;;0.60;99.90;;;;;;5123231;28;20046;-67
2021/01/09 09:06:13;;;;;;;10.30;6.18;;;0.70;99.90;;;;;;5125624;28;20096;-68
2021/01/09 09:08:40;;;;;;;7.35;5.30;;;0.80;99.90;;;;;;5124921;28;20518;-68
2021/01/09 09:11:05;;;;;;;7.35;5.75;;;0.90;99.90;;;;;;5124839;28;20491;-68
2021/01/09 09:13:31;;;;;;;9.00;5.50;;;0.90;99.90;;;;;;5124119;28;20054;-69
2021/01/09 09:16:14;;;;;;;10.68;5.55;;;1.00;99.90;;;;;;5124355;28;20054;-69
2021/01/09 09:18:40;;;;;;;8.23;5.60;;;1.10;99.90;;;;;;5104356;28;20496;-68
2021/01/09 09:21:08;;;;;;;8.70;5.18;;;1.10;99.90;;;;;;5104823;28;20048;-69
2021/01/09 09:23:34;;;;;;;7.47;4.82;;;1.20;99.90;;;;;;5104297;28;20051;-69
2021/01/09 09:26:09;;;;;;;7.35;4.78;;;1.20;99.90;;;;;;5110311;28;20044;-67
2021/01/09 09:28:44;;;;;;;6.72;4.60;;;1.30;99.90;;;;;;5104643;28;20519;-66
2021/01/09 09:31:24;;;;;;;10.85;5.72;;;1.30;99.90;;;;;;5125447;28;20116;-66
2021/01/09 09:33:56;;;;;;;6.93;4.35;;;1.40;99.90;;;;;;5126051;28;20126;-66
2021/01/09 09:36:22;;;;;;;8.27;4.50;;;1.40;99.90;;;;;;5124430;28;20040;-66
2021/01/09 09:38:47;;;;;;;8.88;4.32;;;1.50;99.90;;;;;;5124555;28;20164;-66
2021/01/09 09:41:13;;;;;;;8.68;4.38;;;1.60;99.90;;;;;;5124785;28;20422;-68
2021/01/09 09:43:39;;;;;;;9.43;4.53;;;1.60;99.90;;;;;;5122067;28;20104;-66
2021/01/09 09:46:07;;;;;;;6.57;4.75;;;1.70;99.90;;;;;;5123432;28;20043;-71
2021/01/09 09:48:35;;;;;;;9.57;4.32;;;1.80;99.90;;;;;;5123573;28;20055;-66
2021/01/09 09:51:11;;;;;;;5.97;3.42;;;1.90;99.80;;;;;;5118947;28;20040;-66
2021/01/09 09:53:40;;;;;;;9.00;4.35;;;1.90;99.70;;;;;;5123672;28;20043;-67
2021/01/09 09:56:13;;;;;;;4.97;3.33;;;1.90;99.20;;;;;;5123636;28;20050;-68
2021/01/09 09:58:39;;;;;;;5.38;3.67;;;1.90;99.20;;;;;;5115512;28;20051;-70
2021/01/09 10:01:18;;;;;;;8.60;3.65;;;1.90;99.20;;;;;;5123197;28;20031;-69
2021/01/09 10:03:44;;;;;;;7.00;3.72;;;2.00;99.40;;;;;;5127405;28;20043;-66
2021/01/09 10:06:09;;;;;;;6.10;3.90;;;2.10;99.50;;;;;;5121273;28;20035;-69
2021/01/09 10:08:35;;;;;;;12.07;4.18;;;2.10;99.40;;;;;;5119949;28;20055;-69
2021/01/09 10:11:02;;;;;;;7.32;4.15;;;2.20;99.30;;;;;;5127819;28;20051;-69
2021/01/09 10:13:29;;;;;;;7.25;3.78;;;2.20;99.00;;;;;;5126824;28;20027;-72
2021/01/09 10:15:58;;;;;;;6.00;3.60;;;2.20;99.00;;;;;;5127505;28;20526;-72
2021/01/09 10:18:25;;;;;;;8.60;3.67;;;2.30;99.10;;;;;;5127062;28;20099;-63
2021/01/09 10:20:50;;;;;;;5.78;3.63;;;2.30;99.20;;;;;;5107375;28;20071;-67
2021/01/09 10:23:16;;;;;;;5.05;2.95;;;2.40;99.10;;;;;;5127621;28;20073;-65
2021/01/09 10:25:43;;;;;;;5.72;3.33;;;2.40;99.10;;;;;;5127547;28;20039;-65
2021/01/09 10:28:08;;;;;;;7.50;3.78;;;2.40;98.90;;;;;;5127720;28;20103;-65
2021/01/09 10:30:34;;;;;;;5.90;3.03;;;2.50;98.80;;;;;;5128753;28;20039;-65
2021/01/09 10:33:00;;;;;;;3.22;2.25;;;2.50;98.70;;;;;;5128738;28;20039;-65
2021/01/09 10:35:26;;;;;;;6.68;2.53;;;2.50;98.70;;;;;;5127697;28;20040;-65
2021/01/09 10:37:51;;;;;;;5.72;2.80;;;2.60;98.70;;;;;;5118970;28;20074;-64
2021/01/09 10:40:17;;;;;;;6.80;2.45;;;2.60;98.80;;;;;;5127312;28;20048;-64
2021/01/09 10:42:43;;;;;;;4.35;2.50;;;2.60;98.90;;;;;;5127171;28;20046;-64
2021/01/09 10:45:12;;;;;;;3.58;2.30;;;2.60;98.80;;;;;;5126439;28;20044;-66
2021/01/09 10:47:38;;;;;;;5.25;2.72;;;2.70;98.80;;;;;;5124965;28;20046;-65
2021/01/09 10:50:05;;;;;;;5.78;2.58;;;2.70;98.90;;;;;;5126415;28;20048;-65
2021/01/09 10:52:31;;;;;;;9.02;2.67;;;2.80;98.40;;;;;;5125902;28;20044;-65
2021/01/09 10:54:57;;;;;;;3.45;2.10;;;2.90;98.40;;;;;;5125781;28;20122;-65
2021/01/09 10:57:23;;;;;;;7.85;2.38;;;3.00;98.20;;;;;;5126084;28;20047;-63
2021/01/09 10:59:48;;;;;;;5.72;2.00;;;3.10;97.90;;;;;;5119409;28;20039;-67
2021/01/09 11:02:14;;;;;;;4.93;2.10;;;3.20;97.30;;;;;;5106194;28;20048;-67
2021/01/09 11:04:41;;;;;;;5.85;2.35;;;3.20;97.50;;;;;;5092768;27;20043;-67
2021/01/09 11:07:07;;;;;;;4.25;2.28;;;3.30;97.00;;;;;;5092146;27;20622;-66
2021/01/09 11:09:33;;;;;;;5.80;2.05;;;3.40;97.10;;;;;;5097842;27;20167;-65
2021/01/09 11:11:59;;;;;;;5.13;1.98;;;3.40;97.10;;;;;;5102272;28;20478;-66
2021/01/09 11:14:25;;;;;;;4.22;2.22;;;3.40;96.80;;;;;;5104702;28;20087;-66
2021/01/09 11:16:54;;;;;;;5.90;2.15;;;3.30;97.10;;;;;;5108116;28;20120;-66
2021/01/09 11:19:21;;;;;;;3.17;2.17;;;3.40;97.10;;;;;;5113260;27;20040;-66
2021/01/09 11:21:47;;;;;;;7.57;2.17;;;3.40;97.00;;;;;;5125993;27;20123;-66
2021/01/09 11:24:12;;;;;;;4.68;1.83;;;3.30;97.20;;;;;;5110578;28;20573;-65
2021/01/09 11:26:38;;;;;;;5.85;2.03;;;3.30;97.10;;;;;;5102159;28;20059;-64
2021/01/09 11:29:04;;;;;;;4.18;1.98;;;3.40;97.10;;;;;;5099755;28;20039;-65
2021/01/09 11:31:30;;;;;;;3.83;2.05;;;3.30;97.30;;;;;;5106536;27;20111;-65
2021/01/09 11:33:55;;;;;;;5.50;2.10;;;3.30;97.40;;;;;;5114711;27;20146;-64
2021/01/09 11:36:22;;;;;;;6.72;2.15;;;3.40;97.50;;;;;;5109404;27;20093;-66
2021/01/09 11:38:48;;;;;;;7.78;2.33;;;3.40;97.60;;;;;;5118476;28;20059;-65
2021/01/09 11:41:15;;;;;;;4.78;2.42;;;3.60;98.20;;;;;;5109599;28;20052;-67
2021/01/09 11:43:42;;;;;;;5.30;2.05;;;3.70;97.80;;;;;;5105495;28;20097;-76
2021/01/09 11:46:10;;;;;;;3.17;1.65;;;3.80;97.40;;;;;;5100729;28;20515;-67
2021/01/09 11:48:36;;;;;;;5.38;1.92;;;3.80;96.50;;;;;;5099860;28;20047;-66
2021/01/09 11:51:03;;;;;;;5.78;2.05;;;3.80;96.50;;;;;;5117146;28;20081;-68
2021/01/09 11:53:29;;;;;;;3.17;2.33;;;3.80;96.60;;;;;;5093169;28;20072;-69
2021/01/09 11:55:55;;;;;;;5.72;2.03;;;3.80;96.10;;;;;;5112992;28;20452;-67
2021/01/09 11:58:21;;;;;;;5.20;1.80;;;3.80;96.30;;;;;;5108003;28;20047;-67
2021/01/09 12:00:47;;;;;;;4.50;1.73;;;3.80;96.20;;;;;;5120571;28;20123;-69
2021/01/09 12:03:13;;;;;;;3.88;2.05;;;3.80;95.70;;;;;;5094929;28;20040;-66
2021/01/09 12:05:39;;;;;;;5.28;1.70;;;3.90;96.10;;;;;;5104235;28;20043;-67
2021/01/09 12:08:06;;;;;;;5.35;1.98;;;3.90;96.20;;;;;;5106928;28;20523;-66
2021/01/09 12:10:32;;;;;;;8.68;3.05;;;4.00;95.50;;;;;;5098290;28;20044;-66
2021/01/09 12:13:00;;;;;;;9.70;2.13;;;4.00;96.10;;;;;;5088950;28;20092;-66
2021/01/09 12:15:26;;;;;;;4.93;1.85;;;4.10;96.00;;;;;;5113165;28;20047;-66
2021/01/09 12:17:52;;;;;;;3.42;1.67;;;4.20;95.50;;;;;;5107925;28;20051;-67
2021/01/09 12:20:17;;;;;;;5.03;1.85;;;4.30;94.80;;;;;;5112354;28;20114;-66
2021/01/09 12:22:43;;;;;;;3.67;1.63;;;4.30;95.30;;;;;;5102448;28;20055;-66
2021/01/09 12:25:10;;;;;;;5.10;1.95;;;4.40;95.10;;;;;;5115029;28;20077;-67
2021/01/09 12:27:35;;;;;;;5.38;2.00;;;4.30;94.90;;;;;;5086468;27;20307;-67
2021/01/09 12:30:01;;;;;;;5.20;2.00;;;4.30;95.00;;;;;;5112490;28;20089;-66
2021/01/09 12:32:27;;;;;;;2.92;1.75;;;4.30;95.30;;;;;;5087585;27;20047;-66
2021/01/09 12:34:54;;;;;;;6.05;1.92;;;4.30;95.30;;;;;;5112570;28;20359;-66
2021/01/09 12:37:20;;;;;;;5.00;1.70;;;4.20;95.40;;;;;;5091202;27;20083;-67
2021/01/09 12:39:46;;;;;;;5.65;1.90;;;4.30;95.20;;;;;;5110159;28;20043;-66
2021/01/09 12:42:12;;;;;;;3.92;2.13;;;4.30;95.40;;;;;;5088299;28;20559;-67
2021/01/09 12:44:38;;;;;;;4.80;1.90;;;4.30;95.50;;;;;;5111671;27;20047;-67
2021/01/09 12:47:05;;;;;;;4.78;1.75;;;4.30;95.20;;;;;;5092670;28;20046;-67
2021/01/09 12:49:31;;;;;;;3.53;1.63;;;4.30;95.20;;;;;;5097811;28;20047;-67
2021/01/09 12:51:58;;;;;;;5.20;1.58;;;4.30;95.10;;;;;;5103761;27;20494;-67
2021/01/09 12:54:25;;;;;;;3.45;2.13;;;4.40;95.20;;;;;;5117233;28;20043;-67
2021/01/09 12:56:52;;;;;;;4.18;1.70;;;4.50;95.20;;;;;;5107334;27;20039;-66
2021/01/09 12:59:19;;;;;;;3.42;1.40;;;4.50;95.10;;;;;;5112867;28;20067;-67